Terminal Aerodrome Forecast
Issued by NWS

Home | Current Version | Previous Version | Text Only | Print | Product List | Glossary On
Versions: 1 2 3 4 5 6 7 8 9 10 11 12 13 14 15 16 17
000
FTUS45 KABQ 262300
TAFSAF
TAF
KSAF 262337Z 2700/2724 VRB05KT P6SM VCSH OVC060
     FM270400 03010KT 6SM -RA BR OVC025
     FM271200 36015KT P6SM VCSH BKN030 OVC050=

USA.gov is the U.S. government's official web portal to all federal, state and local government web resources and services.